Wolf Creek Pass, CO

7:38 PM MDT on April 19, 2018 (GMT -0600)
Wolf Creek Pass

Weather History for KCPW - April, 2013

Change the Weather History Date:

Wednesday, April 3, 2013

  Actual Average (KALS) Record (KALS)
Temperature  
Mean Temperature 25 °F -  
Max Temperature 33 °F 53 °F 70 °F (1954)
Min Temperature 17 °F 19 °F 3 °F (1957)
Degree Days  
Heating Degree Days 40    
Moisture  
Dew Point 12 °F    
Average Humidity 61    
Maximum Humidity 93    
Minimum Humidity 28    
Precipitation  
Precipitation 0.00 in - - ()
Sea Level Pressure  
Sea Level Pressure 30.20 in    
Wind  
Wind Speed 8 mph (NNE)    
Max Wind Speed 20 mph    
Max Gust Speed 26 mph    
Visibility 10 miles    
Events Snow    
Averages and records for this station are not official NWS values.
T = Trace of Precipitation, MM = Missing Value Source: NWS Daily Summary

Daily Weather History Graph

Daily Weather History Graph

Search for Another Location

Airport or City:

Astronomy

Apr. 03, 2013 Rise Set
Actual Time 6:49 AM MDT 7:32 PM MDT
Civil Twilight 6:22 AM MDT 7:58 PM MDT
Nautical Twilight 5:51 AM MDT 8:29 PM MDT
Astronomical Twilight 5:19 AM MDT 9:01 PM MDT
Moon 2:24 AM MDT (4/3) 12:54 PM MDT (4/3)
Length of Visible Light 13h 35m
Length of Day
12h 42m
Last Quarter, 44% of the Moon is Illuminated
Apr 3
Last Quarter
Apr 10
New
Apr 18
First Quarter
Apr 25
Full
May 2
Last Quarter

Hourly Weather History & Observations

Time (MDT) Temp. Windchill Dew Point Humidity Pressure Visibility Wind Dir Wind Speed Gust Speed Precip Events Conditions
12:17 AM 17.6 °F - 12.2 °F 79% 30.10 in 10.0 mi Calm Calm - N/A   Clear
12:37 AM 19.4 °F - 14.0 °F 80% 30.11 in 10.0 mi Calm Calm - N/A   Mostly Cloudy
12:57 AM 19.4 °F 10.4 °F 14.0 °F 80% 30.10 in 10.0 mi NE 6.9 mph - N/A   Mostly Cloudy
1:17 AM 19.4 °F 12.8 °F 14.0 °F 80% 30.10 in 10.0 mi ENE 4.6 mph - N/A   Mostly Cloudy
1:37 AM 19.4 °F 12.8 °F 17.6 °F 93% 30.10 in 10.0 mi ENE 4.6 mph - N/A   Scattered Clouds
1:57 AM 19.4 °F - 15.8 °F 86% 30.10 in 10.0 mi Calm Calm - N/A   Clear
2:17 AM 19.4 °F 10.4 °F 14.0 °F 80% 30.10 in 10.0 mi NE 6.9 mph - N/A   Clear
2:37 AM 17.6 °F 12.3 °F 15.8 °F 93% 30.10 in 10.0 mi NE 3.5 mph - N/A   Clear
2:57 AM 19.4 °F 14.3 °F 15.8 °F 86% 30.10 in 10.0 mi North 3.5 mph - N/A   Mostly Cloudy
3:17 AM 17.6 °F 8.2 °F 14.0 °F 86% 30.10 in 10.0 mi North 6.9 mph - N/A   Scattered Clouds
3:37 AM 19.4 °F 8.6 °F 12.2 °F 74% 30.10 in 10.0 mi North 9.2 mph - N/A   Clear
3:57 AM 17.6 °F 10.7 °F 12.2 °F 79% 30.10 in 10.0 mi NE 4.6 mph - N/A   Clear
4:17 AM 17.6 °F 8.2 °F 12.2 °F 79% 30.10 in 10.0 mi North 6.9 mph - N/A   Scattered Clouds
4:37 AM 17.6 °F 5.7 °F 12.2 °F 79% 30.11 in 10.0 mi North 10.4 mph - N/A   Scattered Clouds
4:57 AM 17.6 °F 8.2 °F 14.0 °F 86% 30.11 in 10.0 mi NNW 6.9 mph - N/A   Scattered Clouds
5:17 AM 17.6 °F 10.7 °F 12.2 °F 79% 30.12 in 10.0 mi North 4.6 mph - N/A   Mostly Cloudy
5:37 AM 17.6 °F 10.7 °F 12.2 °F 79% 30.12 in 10.0 mi West 4.6 mph - N/A   Mostly Cloudy
5:57 AM 17.6 °F - 12.2 °F 79% 30.12 in 10.0 mi Calm Calm - N/A   Scattered Clouds
6:17 AM 17.6 °F 10.7 °F 12.2 °F 79% 30.13 in 10.0 mi ENE 4.6 mph - N/A   Clear
6:37 AM 17.6 °F 8.2 °F 12.2 °F 79% 30.13 in 10.0 mi NNE 6.9 mph - N/A   Scattered Clouds
6:57 AM 17.6 °F 5.0 °F 12.2 °F 79% 30.13 in 10.0 mi NNE 11.5 mph 20.7 mph N/A   Overcast
7:17 AM 17.6 °F 3.7 °F 12.2 °F 79% 30.14 in 10.0 mi NNE 13.8 mph 19.6 mph N/A Snow Light Snow
7:37 AM 17.6 °F 5.0 °F 12.2 °F 79% 30.14 in 10.0 mi NNE 11.5 mph 20.7 mph N/A Snow Light Snow
7:57 AM 19.4 °F 7.9 °F 14.0 °F 80% 30.14 in 4.0 mi NE 10.4 mph 19.6 mph N/A Snow Light Snow
8:17 AM 21.2 °F 9.5 °F 14.0 °F 74% 30.15 in 5.0 mi NE 11.5 mph 19.6 mph N/A Snow Light Snow
8:37 AM 21.2 °F 8.3 °F 14.0 °F 74% 30.16 in 10.0 mi NNE 13.8 mph 21.9 mph N/A   Scattered Clouds
8:57 AM 21.2 °F 10.1 °F 15.8 °F 80% 30.17 in 10.0 mi NNE 10.4 mph 18.4 mph N/A   Mostly Cloudy
9:17 AM 23.0 °F 10.6 °F 15.8 °F 74% 30.17 in 10.0 mi ENE 13.8 mph 18.4 mph N/A   Mostly Cloudy
9:37 AM 26.6 °F 16.2 °F 17.6 °F 69% 30.17 in 10.0 mi NE 11.5 mph 21.9 mph N/A   Mostly Cloudy
9:57 AM 26.6 °F 15.2 °F 15.8 °F 64% 30.18 in 10.0 mi NE 13.8 mph 20.7 mph N/A   Mostly Cloudy
10:17 AM 26.6 °F 16.8 °F 15.8 °F 64% 30.19 in 10.0 mi NE 10.4 mph 17.3 mph N/A   Mostly Cloudy
10:37 AM 28.4 °F 17.0 °F 17.6 °F 64% 30.19 in 10.0 mi NE 15.0 mph - N/A   Mostly Cloudy
10:57 AM 28.4 °F 16.2 °F 17.6 °F 64% 30.19 in 10.0 mi NE 17.3 mph 25.3 mph N/A   Mostly Cloudy
11:17 AM 26.6 °F 14.7 °F 15.8 °F 64% 30.20 in 10.0 mi NNE 15.0 mph 25.3 mph N/A   Overcast
11:37 AM 28.4 °F 15.4 °F 17.6 °F 64% 30.20 in 10.0 mi NE 19.6 mph 24.2 mph N/A   Mostly Cloudy
11:57 AM 28.4 °F 18.5 °F 15.8 °F 59% 30.22 in 10.0 mi NNE 11.5 mph 21.9 mph N/A   Mostly Cloudy
12:17 PM 28.4 °F 22.2 °F 14.0 °F 55% 30.22 in 10.0 mi ENE 5.8 mph - N/A   Overcast
12:37 PM 28.4 °F - 14.0 °F 55% 30.22 in 10.0 mi Calm Calm - N/A   Overcast
12:50 PM 28.4 °F 20.4 °F 14.0 °F 55% 30.22 in 10.0 mi NE 8.1 mph - N/A   Overcast
1:17 PM 30.2 °F 21.3 °F 14.0 °F 51% 30.22 in 10.0 mi North 10.4 mph 20.7 mph N/A   Overcast
1:37 PM 30.2 °F 21.3 °F 12.2 °F 47% 30.22 in 10.0 mi NNE 10.4 mph 17.3 mph N/A   Overcast
1:57 PM 32.0 °F 22.5 °F 12.2 °F 44% 30.22 in 10.0 mi NE 12.7 mph 20.7 mph N/A   Scattered Clouds
2:17 PM 32.0 °F 24.8 °F 12.2 °F 44% 30.22 in 10.0 mi NNE 8.1 mph - N/A   Mostly Cloudy
2:37 PM 32.0 °F 21.2 °F 10.4 °F 41% 30.22 in 10.0 mi NE 16.1 mph 23.0 mph N/A   Overcast
2:57 PM 32.0 °F 22.5 °F 10.4 °F 41% 30.23 in 10.0 mi North 12.7 mph 21.9 mph N/A   Overcast
3:17 PM 32.0 °F 21.2 °F 10.4 °F 41% 30.23 in 10.0 mi North 16.1 mph - N/A   Overcast
3:37 PM 32.0 °F 21.2 °F 8.6 °F 38% 30.24 in 10.0 mi North 16.1 mph - N/A   Mostly Cloudy
3:57 PM 33.8 °F 27.7 °F 6.8 °F 32% 30.24 in 10.0 mi North 6.9 mph 26.5 mph N/A   Mostly Cloudy
4:17 PM 32.0 °F 24.2 °F 8.6 °F 38% 30.24 in 10.0 mi NNE 9.2 mph 16.1 mph N/A   Overcast
4:37 PM 32.0 °F 22.1 °F 8.6 °F 38% 30.24 in 10.0 mi NE 13.8 mph 19.6 mph N/A   Overcast
4:57 PM 32.0 °F 24.2 °F 8.6 °F 38% 30.24 in 10.0 mi NE 9.2 mph 16.1 mph N/A   Overcast
5:17 PM 33.8 °F 27.0 °F 8.6 °F 35% 30.24 in 10.0 mi NE 8.1 mph 16.1 mph N/A   Mostly Cloudy
5:37 PM 33.8 °F 25.3 °F 3.2 °F 28% 30.25 in 10.0 mi North 11.5 mph 24.2 mph N/A   Scattered Clouds
5:57 PM 33.8 °F 27.0 °F 6.8 °F 32% 30.25 in 10.0 mi North 8.1 mph 19.6 mph N/A   Clear
6:17 PM 32.0 °F 22.1 °F 5.0 °F 32% 30.26 in 10.0 mi North 13.8 mph 20.7 mph N/A   Clear
6:37 PM 32.0 °F 22.1 °F 5.0 °F 32% 30.26 in 10.0 mi NNE 13.8 mph 19.6 mph N/A   Clear
6:57 PM 30.2 °F 20.8 °F 6.8 °F 37% 30.27 in 10.0 mi NNE 11.5 mph 24.2 mph N/A   Clear
7:17 PM 30.2 °F 21.9 °F 8.6 °F 40% 30.27 in 10.0 mi NNE 9.2 mph 25.3 mph N/A   Clear
7:37 PM 30.2 °F 19.8 °F 8.6 °F 40% 30.27 in 10.0 mi NNE 13.8 mph 20.7 mph N/A   Clear
7:57 PM 28.4 °F 19.7 °F 8.6 °F 43% 30.28 in 10.0 mi NNE 9.2 mph 18.4 mph N/A   Clear
8:17 PM 28.4 °F 19.7 °F 8.6 °F 43% 30.29 in 10.0 mi NNE 9.2 mph 16.1 mph N/A   Clear
8:37 PM 28.4 °F 19.1 °F 8.6 °F 43% 30.29 in 10.0 mi NNE 10.4 mph - N/A   Clear
8:57 PM 28.4 °F 18.0 °F 8.6 °F 43% 30.29 in 10.0 mi NNE 12.7 mph - N/A   Clear
9:17 PM 26.6 °F 14.3 °F 10.4 °F 51% 30.31 in 10.0 mi NE 16.1 mph - N/A   Clear
9:37 PM 26.6 °F 15.7 °F 10.4 °F 51% 30.32 in 10.0 mi NE 12.7 mph - N/A   Clear
9:57 PM 24.8 °F 12.9 °F 10.4 °F 54% 30.32 in 10.0 mi NE 13.8 mph - N/A   Clear
10:17 PM 26.6 °F 15.2 °F 12.2 °F 55% 30.33 in 10.0 mi NNE 13.8 mph 24.2 mph N/A   Clear
10:37 PM 26.6 °F 16.8 °F 12.2 °F 55% 30.34 in 10.0 mi NE 10.4 mph 18.4 mph N/A   Clear
10:57 PM 23.0 °F 11.1 °F 12.2 °F 63% 30.34 in 10.0 mi NE 12.7 mph - N/A   Clear
11:17 PM 23.0 °F 11.1 °F 12.2 °F 63% 30.34 in 10.0 mi NE 12.7 mph 18.4 mph N/A   Clear
11:37 PM 24.8 °F 12.4 °F 12.2 °F 59% 30.35 in 10.0 mi NNE 15.0 mph 25.3 mph N/A   Clear
11:57 PM 24.8 °F 16.9 °F 12.2 °F 59% 30.35 in 10.0 mi NE 6.9 mph - N/A   Clear